sensor_id;sensor_type;location;lat;lon;timestamp;P1;durP1;ratioP1;P2;durP2;ratioP2
11986;SDS011;6053;51.382;6.768;2024-03-08T00:01:25;3.22;;;2.92;;
11986;SDS011;6053;51.382;6.768;2024-03-08T00:03:52;3.10;;;2.90;;
11986;SDS011;6053;51.382;6.768;2024-03-08T00:06:22;2.38;;;2.28;;
11986;SDS011;6053;51.382;6.768;2024-03-08T00:08:50;2.70;;;2.60;;
11986;SDS011;6053;51.382;6.768;2024-03-08T00:11:21;2.20;;;2.10;;
11986;SDS011;6053;51.382;6.768;2024-03-08T00:13:51;2.50;;;2.40;;
11986;SDS011;6053;51.382;6.768;2024-03-08T00:16:31;3.30;;;3.10;;
11986;SDS011;6053;51.382;6.768;2024-03-08T00:19:01;2.60;;;2.50;;
11986;SDS011;6053;51.382;6.768;2024-03-08T00:21:28;2.30;;;2.20;;
11986;SDS011;6053;51.382;6.768;2024-03-08T00:24:00;4.40;;;4.10;;
11986;SDS011;6053;51.382;6.768;2024-03-08T00:26:28;3.83;;;3.63;;
11986;SDS011;6053;51.382;6.768;2024-03-08T00:29:05;2.47;;;2.37;;
11986;SDS011;6053;51.382;6.768;2024-03-08T00:31:33;2.65;;;2.55;;
11986;SDS011;6053;51.382;6.768;2024-03-08T00:34:06;2.67;;;2.58;;
11986;SDS011;6053;51.382;6.768;2024-03-08T00:36:37;3.22;;;3.08;;
11986;SDS011;6053;51.382;6.768;2024-03-08T00:39:04;2.85;;;2.75;;
11986;SDS011;6053;51.382;6.768;2024-03-08T00:41:32;2.67;;;2.58;;
11986;SDS011;6053;51.382;6.768;2024-03-08T00:44:03;2.78;;;2.67;;
11986;SDS011;6053;51.382;6.768;2024-03-08T00:46:39;2.92;;;2.83;;
11986;SDS011;6053;51.382;6.768;2024-03-08T00:49:08;2.42;;;2.33;;
11986;SDS011;6053;51.382;6.768;2024-03-08T00:51:35;2.90;;;2.80;;
11986;SDS011;6053;51.382;6.768;2024-03-08T00:54:09;2.63;;;2.53;;
11986;SDS011;6053;51.382;6.768;2024-03-08T00:56:48;2.55;;;2.45;;
11986;SDS011;6053;51.382;6.768;2024-03-08T00:59:21;2.50;;;2.40;;
11986;SDS011;6053;51.382;6.768;2024-03-08T01:01:55;2.57;;;2.47;;
11986;SDS011;6053;51.382;6.768;2024-03-08T01:04:25;3.50;;;3.30;;
11986;SDS011;6053;51.382;6.768;2024-03-08T01:07:00;2.77;;;2.67;;
11986;SDS011;6053;51.382;6.768;2024-03-08T01:09:28;3.00;;;2.88;;
11986;SDS011;6053;51.382;6.768;2024-03-08T01:11:56;2.90;;;2.80;;
11986;SDS011;6053;51.382;6.768;2024-03-08T01:14:26;3.50;;;3.30;;
11986;SDS011;6053;51.382;6.768;2024-03-08T01:17:06;3.75;;;3.55;;
11986;SDS011;6053;51.382;6.768;2024-03-08T01:19:39;5.10;;;4.70;;
11986;SDS011;6053;51.382;6.768;2024-03-08T01:22:07;2.50;;;2.40;;
11986;SDS011;6053;51.382;6.768;2024-03-08T01:24:35;2.60;;;2.50;;
11986;SDS011;6053;51.382;6.768;2024-03-08T01:27:06;2.78;;;2.67;;
11986;SDS011;6053;51.382;6.768;2024-03-08T01:29:44;4.10;;;3.88;;
11986;SDS011;6053;51.382;6.768;2024-03-08T01:32:11;2.97;;;2.88;;
11986;SDS011;6053;51.382;6.768;2024-03-08T01:34:42;4.03;;;3.80;;
11986;SDS011;6053;51.382;6.768;2024-03-08T01:37:10;3.90;;;3.63;;
11986;SDS011;6053;51.382;6.768;2024-03-08T01:39:40;3.72;;;3.53;;
11986;SDS011;6053;51.382;6.768;2024-03-08T01:42:08;2.80;;;2.70;;
11986;SDS011;6053;51.382;6.768;2024-03-08T01:44:37;5.33;;;4.93;;
11986;SDS011;6053;51.382;6.768;2024-03-08T01:47:05;3.10;;;3.00;;
11986;SDS011;6053;51.382;6.768;2024-03-08T01:49:32;3.55;;;3.35;;
11986;SDS011;6053;51.382;6.768;2024-03-08T01:52:05;3.85;;;3.65;;
11986;SDS011;6053;51.382;6.768;2024-03-08T01:54:32;3.60;;;3.40;;
11986;SDS011;6053;51.382;6.768;2024-03-08T01:57:01;3.88;;;3.67;;
11986;SDS011;6053;51.382;6.768;2024-03-08T01:59:31;3.67;;;3.47;;
11986;SDS011;6053;51.382;6.768;2024-03-08T02:02:00;2.83;;;2.72;;
11986;SDS011;6053;51.382;6.768;2024-03-08T02:04:31;3.00;;;2.90;;
11986;SDS011;6053;51.382;6.768;2024-03-08T02:06:59;3.00;;;2.90;;
11986;SDS011;6053;51.382;6.768;2024-03-08T02:09:27;3.10;;;3.00;;
11986;SDS011;6053;51.382;6.768;2024-03-08T02:11:57;2.70;;;2.60;;
11986;SDS011;6053;51.382;6.768;2024-03-08T02:14:26;3.35;;;3.25;;
11986;SDS011;6053;51.382;6.768;2024-03-08T02:17:01;2.55;;;2.50;;
11986;SDS011;6053;51.382;6.768;2024-03-08T02:19:30;3.20;;;3.10;;
11986;SDS011;6053;51.382;6.768;2024-03-08T02:22:00;2.70;;;2.60;;
11986;SDS011;6053;51.382;6.768;2024-03-08T02:24:30;2.70;;;2.60;;
11986;SDS011;6053;51.382;6.768;2024-03-08T02:27:02;2.60;;;2.50;;
11986;SDS011;6053;51.382;6.768;2024-03-08T02:29:32;3.08;;;2.90;;
11986;SDS011;6053;51.382;6.768;2024-03-08T02:32:03;2.83;;;2.72;;
11986;SDS011;6053;51.382;6.768;2024-03-08T02:34:31;2.70;;;2.60;;
11986;SDS011;6053;51.382;6.768;2024-03-08T02:37:04;2.27;;;2.23;;
11986;SDS011;6053;51.382;6.768;2024-03-08T02:39:32;2.80;;;2.70;;
11986;SDS011;6053;51.382;6.768;2024-03-08T02:41:59;2.88;;;2.78;;
11986;SDS011;6053;51.382;6.768;2024-03-08T02:44:27;2.97;;;2.88;;
11986;SDS011;6053;51.382;6.768;2024-03-08T02:46:55;2.90;;;2.80;;
11986;SDS011;6053;51.382;6.768;2024-03-08T02:49:28;2.70;;;2.60;;
11986;SDS011;6053;51.382;6.768;2024-03-08T02:51:57;3.00;;;2.90;;
11986;SDS011;6053;51.382;6.768;2024-03-08T02:54:26;3.00;;;2.90;;
11986;SDS011;6053;51.382;6.768;2024-03-08T02:56:54;2.85;;;2.75;;
11986;SDS011;6053;51.382;6.768;2024-03-08T02:59:22;3.60;;;3.40;;
11986;SDS011;6053;51.382;6.768;2024-03-08T03:01:55;2.80;;;2.70;;
11986;SDS011;6053;51.382;6.768;2024-03-08T03:04:25;3.13;;;3.03;;
11986;SDS011;6053;51.382;6.768;2024-03-08T03:06:53;3.45;;;3.25;;
11986;SDS011;6053;51.382;6.768;2024-03-08T03:09:21;2.88;;;2.78;;
11986;SDS011;6053;51.382;6.768;2024-03-08T03:11:54;3.03;;;2.93;;
11986;SDS011;6053;51.382;6.768;2024-03-08T03:14:22;2.60;;;2.50;;
11986;SDS011;6053;51.382;6.768;2024-03-08T03:16:55;2.78;;;2.67;;
11986;SDS011;6053;51.382;6.768;2024-03-08T03:19:24;2.78;;;2.67;;
11986;SDS011;6053;51.382;6.768;2024-03-08T03:21:54;3.03;;;2.92;;
11986;SDS011;6053;51.382;6.768;2024-03-08T03:24:25;3.03;;;2.93;;
11986;SDS011;6053;51.382;6.768;2024-03-08T03:26:56;2.70;;;2.60;;
11986;SDS011;6053;51.382;6.768;2024-03-08T03:29:39;2.92;;;2.83;;
11986;SDS011;6053;51.382;6.768;2024-03-08T03:32:11;3.22;;;3.13;;
11986;SDS011;6053;51.382;6.768;2024-03-08T03:34:47;3.13;;;3.03;;
11986;SDS011;6053;51.382;6.768;2024-03-08T03:37:14;2.50;;;2.40;;
11986;SDS011;6053;51.382;6.768;2024-03-08T03:39:45;2.90;;;2.80;;
11986;SDS011;6053;51.382;6.768;2024-03-08T03:42:17;3.20;;;3.10;;
11986;SDS011;6053;51.382;6.768;2024-03-08T03:44:46;3.13;;;3.03;;
11986;SDS011;6053;51.382;6.768;2024-03-08T03:47:18;3.08;;;2.97;;
11986;SDS011;6053;51.382;6.768;2024-03-08T03:49:47;2.90;;;2.80;;
11986;SDS011;6053;51.382;6.768;2024-03-08T03:52:15;2.90;;;2.80;;
11986;SDS011;6053;51.382;6.768;2024-03-08T03:54:43;3.03;;;2.92;;
11986;SDS011;6053;51.382;6.768;2024-03-08T03:57:17;3.03;;;2.92;;
11986;SDS011;6053;51.382;6.768;2024-03-08T03:59:46;2.83;;;2.73;;
11986;SDS011;6053;51.382;6.768;2024-03-08T04:02:17;2.92;;;2.83;;
11986;SDS011;6053;51.382;6.768;2024-03-08T04:04:46;3.00;;;2.90;;
11986;SDS011;6053;51.382;6.768;2024-03-08T04:07:18;3.03;;;2.92;;
11986;SDS011;6053;51.382;6.768;2024-03-08T04:09:45;3.15;;;3.05;;
11986;SDS011;6053;51.382;6.768;2024-03-08T04:12:17;3.10;;;3.00;;
11986;SDS011;6053;51.382;6.768;2024-03-08T04:14:51;2.87;;;2.77;;
11986;SDS011;6053;51.382;6.768;2024-03-08T04:17:22;3.00;;;2.90;;
11986;SDS011;6053;51.382;6.768;2024-03-08T04:19:50;3.40;;;3.30;;
11986;SDS011;6053;51.382;6.768;2024-03-08T04:22:20;3.13;;;3.03;;
11986;SDS011;6053;51.382;6.768;2024-03-08T04:24:48;3.00;;;2.80;;
11986;SDS011;6053;51.382;6.768;2024-03-08T04:27:23;4.93;;;4.57;;
11986;SDS011;6053;51.382;6.768;2024-03-08T04:29:51;4.30;;;4.10;;
11986;SDS011;6053;51.382;6.768;2024-03-08T04:32:18;3.45;;;3.25;;
11986;SDS011;6053;51.382;6.768;2024-03-08T04:34:46;3.13;;;3.00;;
11986;SDS011;6053;51.382;6.768;2024-03-08T04:37:15;3.40;;;3.20;;
11986;SDS011;6053;51.382;6.768;2024-03-08T04:39:44;4.13;;;3.93;;
11986;SDS011;6053;51.382;6.768;2024-03-08T04:42:13;3.37;;;3.20;;
11986;SDS011;6053;51.382;6.768;2024-03-08T04:44:46;6.18;;;5.57;;
11986;SDS011;6053;51.382;6.768;2024-03-08T04:47:14;3.60;;;3.40;;
11986;SDS011;6053;51.382;6.768;2024-03-08T04:49:46;2.90;;;2.80;;
11986;SDS011;6053;51.382;6.768;2024-03-08T04:52:17;3.42;;;3.22;;
11986;SDS011;6053;51.382;6.768;2024-03-08T04:54:45;2.97;;;2.88;;
11986;SDS011;6053;51.382;6.768;2024-03-08T04:57:13;3.60;;;3.40;;
11986;SDS011;6053;51.382;6.768;2024-03-08T04:59:47;3.50;;;3.40;;
11986;SDS011;6053;51.382;6.768;2024-03-08T05:02:17;3.65;;;3.45;;
11986;SDS011;6053;51.382;6.768;2024-03-08T05:04:45;3.40;;;3.20;;
11986;SDS011;6053;51.382;6.768;2024-03-08T05:07:13;3.40;;;3.20;;
11986;SDS011;6053;51.382;6.768;2024-03-08T05:09:40;3.10;;;3.00;;
11986;SDS011;6053;51.382;6.768;2024-03-08T05:12:09;3.27;;;3.17;;
11986;SDS011;6053;51.382;6.768;2024-03-08T05:14:41;3.05;;;2.95;;
11986;SDS011;6053;51.382;6.768;2024-03-08T05:17:12;3.50;;;3.40;;
11986;SDS011;6053;51.382;6.768;2024-03-08T05:19:42;3.28;;;3.17;;
11986;SDS011;6053;51.382;6.768;2024-03-08T05:22:11;3.50;;;3.40;;
11986;SDS011;6053;51.382;6.768;2024-03-08T05:24:39;3.80;;;3.60;;
11986;SDS011;6053;51.382;6.768;2024-03-08T05:27:08;3.10;;;3.00;;
11986;SDS011;6053;51.382;6.768;2024-03-08T05:29:36;3.28;;;3.17;;
11986;SDS011;6053;51.382;6.768;2024-03-08T05:32:08;3.10;;;3.00;;
11986;SDS011;6053;51.382;6.768;2024-03-08T05:34:38;3.33;;;3.22;;
11986;SDS011;6053;51.382;6.768;2024-03-08T05:37:09;3.47;;;3.37;;
11986;SDS011;6053;51.382;6.768;2024-03-08T05:39:35;3.92;;;3.72;;
11986;SDS011;6053;51.382;6.768;2024-03-08T05:42:03;3.60;;;3.50;;
11986;SDS011;6053;51.382;6.768;2024-03-08T05:44:33;3.17;;;3.07;;
11986;SDS011;6053;51.382;6.768;2024-03-08T05:47:03;3.08;;;2.97;;
11986;SDS011;6053;51.382;6.768;2024-03-08T05:49:33;3.00;;;2.90;;
11986;SDS011;6053;51.382;6.768;2024-03-08T05:52:00;3.00;;;2.90;;
11986;SDS011;6053;51.382;6.768;2024-03-08T05:54:27;3.28;;;3.17;;
11986;SDS011;6053;51.382;6.768;2024-03-08T05:56:54;3.67;;;3.58;;
11986;SDS011;6053;51.382;6.768;2024-03-08T05:59:22;3.47;;;3.35;;
11986;SDS011;6053;51.382;6.768;2024-03-08T06:01:55;3.35;;;3.15;;
11986;SDS011;6053;51.382;6.768;2024-03-08T06:04:25;3.42;;;3.22;;
11986;SDS011;6053;51.382;6.768;2024-03-08T06:06:53;3.25;;;3.15;;
11986;SDS011;6053;51.382;6.768;2024-03-08T06:09:23;3.58;;;3.38;;
11986;SDS011;6053;51.382;6.768;2024-03-08T06:11:54;3.35;;;3.25;;
11986;SDS011;6053;51.382;6.768;2024-03-08T06:14:22;3.40;;;3.30;;
11986;SDS011;6053;51.382;6.768;2024-03-08T06:16:50;3.23;;;3.13;;
11986;SDS011;6053;51.382;6.768;2024-03-08T06:19:20;3.50;;;3.40;;
11986;SDS011;6053;51.382;6.768;2024-03-08T06:21:47;3.15;;;3.05;;
11986;SDS011;6053;51.382;6.768;2024-03-08T06:24:15;3.45;;;3.25;;
11986;SDS011;6053;51.382;6.768;2024-03-08T06:26:53;3.45;;;3.35;;
11986;SDS011;6053;51.382;6.768;2024-03-08T06:29:20;3.42;;;3.22;;
11986;SDS011;6053;51.382;6.768;2024-03-08T06:31:47;3.50;;;3.40;;
11986;SDS011;6053;51.382;6.768;2024-03-08T06:34:23;3.60;;;3.40;;
11986;SDS011;6053;51.382;6.768;2024-03-08T06:36:51;3.40;;;3.20;;
11986;SDS011;6053;51.382;6.768;2024-03-08T06:39:18;3.40;;;3.30;;
11986;SDS011;6053;51.382;6.768;2024-03-08T06:41:52;3.45;;;3.25;;
11986;SDS011;6053;51.382;6.768;2024-03-08T06:44:22;3.17;;;3.07;;
11986;SDS011;6053;51.382;6.768;2024-03-08T06:46:50;3.40;;;3.30;;
11986;SDS011;6053;51.382;6.768;2024-03-08T06:49:19;3.30;;;3.15;;
11986;SDS011;6053;51.382;6.768;2024-03-08T06:51:53;3.30;;;3.20;;
11986;SDS011;6053;51.382;6.768;2024-03-08T06:54:21;3.28;;;3.17;;
11986;SDS011;6053;51.382;6.768;2024-03-08T06:56:48;3.40;;;3.30;;
11986;SDS011;6053;51.382;6.768;2024-03-08T06:59:21;3.25;;;3.15;;
11986;SDS011;6053;51.382;6.768;2024-03-08T07:01:49;3.45;;;3.35;;
11986;SDS011;6053;51.382;6.768;2024-03-08T07:04:19;3.65;;;3.55;;
11986;SDS011;6053;51.382;6.768;2024-03-08T07:06:52;3.70;;;3.50;;
11986;SDS011;6053;51.382;6.768;2024-03-08T07:09:34;4.47;;;4.18;;
11986;SDS011;6053;51.382;6.768;2024-03-08T07:12:05;3.88;;;3.67;;
11986;SDS011;6053;51.382;6.768;2024-03-08T07:14:33;3.60;;;3.50;;
11986;SDS011;6053;51.382;6.768;2024-03-08T07:17:06;5.13;;;4.72;;
11986;SDS011;6053;51.382;6.768;2024-03-08T07:19:40;4.03;;;3.83;;
11986;SDS011;6053;51.382;6.768;2024-03-08T07:22:08;5.07;;;4.78;;
11986;SDS011;6053;51.382;6.768;2024-03-08T07:24:35;5.40;;;5.00;;
11986;SDS011;6053;51.382;6.768;2024-03-08T07:27:16;5.38;;;4.97;;
11986;SDS011;6053;51.382;6.768;2024-03-08T07:29:43;4.60;;;4.32;;
11986;SDS011;6053;51.382;6.768;2024-03-08T07:32:11;5.32;;;4.97;;
11986;SDS011;6053;51.382;6.768;2024-03-08T07:34:49;5.30;;;4.85;;
11986;SDS011;6053;51.382;6.768;2024-03-08T07:37:17;6.53;;;6.03;;
11986;SDS011;6053;51.382;6.768;2024-03-08T07:39:52;4.80;;;4.43;;
11986;SDS011;6053;51.382;6.768;2024-03-08T07:42:20;7.97;;;7.18;;
11986;SDS011;6053;51.382;6.768;2024-03-08T07:44:48;7.47;;;6.88;;
11986;SDS011;6053;51.382;6.768;2024-03-08T07:47:16;4.70;;;4.40;;
11986;SDS011;6053;51.382;6.768;2024-03-08T07:49:45;5.88;;;5.30;;
11986;SDS011;6053;51.382;6.768;2024-03-08T07:52:12;6.55;;;5.95;;
11986;SDS011;6053;51.382;6.768;2024-03-08T07:54:41;5.55;;;5.15;;
11986;SDS011;6053;51.382;6.768;2024-03-08T07:57:12;6.43;;;5.93;;
11986;SDS011;6053;51.382;6.768;2024-03-08T07:59:43;4.10;;;3.90;;
11986;SDS011;6053;51.382;6.768;2024-03-08T08:02:13;6.47;;;5.97;;
11986;SDS011;6053;51.382;6.768;2024-03-08T08:04:43;4.88;;;4.47;;
11986;SDS011;6053;51.382;6.768;2024-03-08T08:07:10;8.52;;;7.70;;
11986;SDS011;6053;51.382;6.768;2024-03-08T08:09:38;4.60;;;4.38;;
11986;SDS011;6053;51.382;6.768;2024-03-08T08:12:05;5.75;;;5.25;;
11986;SDS011;6053;51.382;6.768;2024-03-08T08:14:34;7.72;;;7.03;;
11986;SDS011;6053;51.382;6.768;2024-03-08T08:17:01;5.57;;;5.27;;
11986;SDS011;6053;51.382;6.768;2024-03-08T08:19:29;5.00;;;4.60;;
11986;SDS011;6053;51.382;6.768;2024-03-08T08:21:57;5.57;;;4.40;;
11986;SDS011;6053;51.382;6.768;2024-03-08T08:24:24;6.68;;;5.97;;
11986;SDS011;6053;51.382;6.768;2024-03-08T08:26:52;6.97;;;6.38;;
11986;SDS011;6053;51.382;6.768;2024-03-08T08:29:24;8.90;;;8.00;;
11986;SDS011;6053;51.382;6.768;2024-03-08T08:31:52;7.65;;;6.95;;
11986;SDS011;6053;51.382;6.768;2024-03-08T08:34:19;8.05;;;7.38;;
11986;SDS011;6053;51.382;6.768;2024-03-08T08:36:49;6.28;;;5.85;;
11986;SDS011;6053;51.382;6.768;2024-03-08T08:39:16;8.57;;;7.85;;
11986;SDS011;6053;51.382;6.768;2024-03-08T08:41:44;6.47;;;5.87;;
11986;SDS011;6053;51.382;6.768;2024-03-08T08:44:14;6.95;;;6.38;;
11986;SDS011;6053;51.382;6.768;2024-03-08T08:46:51;8.55;;;7.75;;
11986;SDS011;6053;51.382;6.768;2024-03-08T08:49:28;7.68;;;6.95;;
11986;SDS011;6053;51.382;6.768;2024-03-08T08:51:59;5.87;;;5.37;;
11986;SDS011;6053;51.382;6.768;2024-03-08T08:54:41;7.18;;;6.57;;
11986;SDS011;6053;51.382;6.768;2024-03-08T08:57:12;9.02;;;6.43;;
11986;SDS011;6053;51.382;6.768;2024-03-08T08:59:42;7.90;;;6.95;;
11986;SDS011;6053;51.382;6.768;2024-03-08T09:02:09;7.75;;;6.28;;
11986;SDS011;6053;51.382;6.768;2024-03-08T09:04:41;6.45;;;5.90;;
11986;SDS011;6053;51.382;6.768;2024-03-08T09:07:09;7.93;;;7.15;;
11986;SDS011;6053;51.382;6.768;2024-03-08T09:09:36;8.63;;;6.80;;
11986;SDS011;6053;51.382;6.768;2024-03-08T09:12:07;7.20;;;6.60;;
11986;SDS011;6053;51.382;6.768;2024-03-08T09:14:40;8.77;;;7.97;;
11986;SDS011;6053;51.382;6.768;2024-03-08T09:17:11;7.78;;;6.97;;
11986;SDS011;6053;51.382;6.768;2024-03-08T09:19:43;10.02;;;8.05;;
11986;SDS011;6053;51.382;6.768;2024-03-08T09:22:18;7.90;;;7.10;;
11986;SDS011;6053;51.382;6.768;2024-03-08T09:24:49;7.50;;;6.80;;
11986;SDS011;6053;51.382;6.768;2024-03-08T09:27:16;8.82;;;8.02;;
11986;SDS011;6053;51.382;6.768;2024-03-08T09:29:46;9.07;;;7.35;;
11986;SDS011;6053;51.382;6.768;2024-03-08T09:32:22;8.57;;;7.85;;
11986;SDS011;6053;51.382;6.768;2024-03-08T09:34:50;7.45;;;6.80;;
11986;SDS011;6053;51.382;6.768;2024-03-08T09:37:20;8.67;;;7.77;;
11986;SDS011;6053;51.382;6.768;2024-03-08T09:39:47;9.27;;;7.85;;
11986;SDS011;6053;51.382;6.768;2024-03-08T09:42:17;9.13;;;8.23;;
11986;SDS011;6053;51.382;6.768;2024-03-08T09:44:45;7.25;;;6.65;;
11986;SDS011;6053;51.382;6.768;2024-03-08T09:47:13;8.75;;;7.95;;
11986;SDS011;6053;51.382;6.768;2024-03-08T09:49:43;8.07;;;7.28;;
11986;SDS011;6053;51.382;6.768;2024-03-08T09:52:10;7.57;;;6.95;;
11986;SDS011;6053;51.382;6.768;2024-03-08T09:54:38;8.67;;;7.77;;
11986;SDS011;6053;51.382;6.768;2024-03-08T09:57:08;9.38;;;8.23;;
11986;SDS011;6053;51.382;6.768;2024-03-08T09:59:36;7.30;;;6.60;;
11986;SDS011;6053;51.382;6.768;2024-03-08T10:02:14;5.32;;;4.93;;
11986;SDS011;6053;51.382;6.768;2024-03-08T10:04:45;8.95;;;8.05;;
11986;SDS011;6053;51.382;6.768;2024-03-08T10:07:16;8.07;;;7.38;;
11986;SDS011;6053;51.382;6.768;2024-03-08T10:09:43;8.65;;;7.85;;
11986;SDS011;6053;51.382;6.768;2024-03-08T10:12:16;6.88;;;6.28;;
11986;SDS011;6053;51.382;6.768;2024-03-08T10:14:45;6.97;;;5.80;;
11986;SDS011;6053;51.382;6.768;2024-03-08T10:17:23;8.50;;;7.57;;
11986;SDS011;6053;51.382;6.768;2024-03-08T10:19:51;8.33;;;7.37;;
11986;SDS011;6053;51.382;6.768;2024-03-08T10:22:18;5.97;;;5.50;;
11986;SDS011;6053;51.382;6.768;2024-03-08T10:24:48;7.30;;;5.95;;
11986;SDS011;6053;51.382;6.768;2024-03-08T10:27:23;6.40;;;5.80;;
11986;SDS011;6053;51.382;6.768;2024-03-08T10:29:59;5.50;;;5.00;;
11986;SDS011;6053;51.382;6.768;2024-03-08T10:32:29;5.43;;;4.93;;
11986;SDS011;6053;51.382;6.768;2024-03-08T10:35:04;5.97;;;5.47;;
11986;SDS011;6053;51.382;6.768;2024-03-08T10:37:33;5.57;;;5.18;;
11986;SDS011;6053;51.382;6.768;2024-03-08T10:40:13;5.73;;;5.33;;
11986;SDS011;6053;51.382;6.768;2024-03-08T10:42:50;6.00;;;5.50;;
11986;SDS011;6053;51.382;6.768;2024-03-08T10:45:23;5.78;;;5.38;;
11986;SDS011;6053;51.382;6.768;2024-03-08T10:48:15;5.93;;;5.50;;
11986;SDS011;6053;51.382;6.768;2024-03-08T10:51:00;5.60;;;5.03;;
11986;SDS011;6053;51.382;6.768;2024-03-08T10:53:29;5.45;;;4.97;;
11986;SDS011;6053;51.382;6.768;2024-03-08T10:55:56;5.30;;;4.90;;
11986;SDS011;6053;51.382;6.768;2024-03-08T10:58:24;5.30;;;4.90;;
11986;SDS011;6053;51.382;6.768;2024-03-08T11:00:53;5.68;;;5.18;;
11986;SDS011;6053;51.382;6.768;2024-03-08T11:03:48;5.70;;;5.20;;
11986;SDS011;6053;51.382;6.768;2024-03-08T11:06:41;5.63;;;4.95;;
11986;SDS011;6053;51.382;6.768;2024-03-08T11:09:27;5.10;;;4.70;;
11986;SDS011;6053;51.382;6.768;2024-03-08T11:14:51;5.27;;;4.87;;
11986;SDS011;6053;51.382;6.768;2024-03-08T11:17:40;4.55;;;4.25;;
11986;SDS011;6053;51.382;6.768;2024-03-08T11:20:12;4.95;;;4.18;;
11986;SDS011;6053;51.382;6.768;2024-03-08T11:22:50;4.78;;;4.32;;
11986;SDS011;6053;51.382;6.768;2024-03-08T11:28:18;4.43;;;4.13;;
11986;SDS011;6053;51.382;6.768;2024-03-08T11:33:52;4.60;;;4.30;;
11986;SDS011;6053;51.382;6.768;2024-03-08T11:36:20;4.57;;;4.28;;
11986;SDS011;6053;51.382;6.768;2024-03-08T11:38:50;4.28;;;3.97;;
11986;SDS011;6053;51.382;6.768;2024-03-08T11:41:20;4.22;;;3.83;;
11986;SDS011;6053;51.382;6.768;2024-03-08T11:44:01;4.93;;;4.63;;
11986;SDS011;6053;51.382;6.768;2024-03-08T11:46:31;5.18;;;4.78;;
11986;SDS011;6053;51.382;6.768;2024-03-08T11:49:01;5.53;;;5.03;;
11986;SDS011;6053;51.382;6.768;2024-03-08T11:51:31;4.73;;;4.43;;
11986;SDS011;6053;51.382;6.768;2024-03-08T11:53:59;5.32;;;4.82;;
11986;SDS011;6053;51.382;6.768;2024-03-08T11:56:29;6.05;;;5.03;;
11986;SDS011;6053;51.382;6.768;2024-03-08T11:58:59;5.22;;;4.72;;
11986;SDS011;6053;51.382;6.768;2024-03-08T12:01:27;5.80;;;4.68;;
11986;SDS011;6053;51.382;6.768;2024-03-08T12:03:54;4.78;;;4.47;;
11986;SDS011;6053;51.382;6.768;2024-03-08T12:06:24;4.85;;;4.55;;
11986;SDS011;6053;51.382;6.768;2024-03-08T12:08:52;5.07;;;4.65;;
11986;SDS011;6053;51.382;6.768;2024-03-08T12:11:24;4.63;;;4.22;;
11986;SDS011;6053;51.382;6.768;2024-03-08T12:13:55;5.00;;;4.67;;
11986;SDS011;6053;51.382;6.768;2024-03-08T12:16:27;4.45;;;4.15;;
11986;SDS011;6053;51.382;6.768;2024-03-08T12:19:05;5.27;;;4.63;;
11986;SDS011;6053;51.382;6.768;2024-03-08T12:21:32;5.15;;;4.65;;
11986;SDS011;6053;51.382;6.768;2024-03-08T12:24:07;4.47;;;4.10;;
11986;SDS011;6053;51.382;6.768;2024-03-08T12:26:42;4.35;;;4.05;;
11986;SDS011;6053;51.382;6.768;2024-03-08T12:29:15;5.45;;;4.63;;
11986;SDS011;6053;51.382;6.768;2024-03-08T12:31:52;4.82;;;4.38;;
11986;SDS011;6053;51.382;6.768;2024-03-08T12:34:21;5.03;;;4.63;;
11986;SDS011;6053;51.382;6.768;2024-03-08T12:36:51;4.25;;;3.85;;
11986;SDS011;6053;51.382;6.768;2024-03-08T12:39:22;4.93;;;4.50;;
11986;SDS011;6053;51.382;6.768;2024-03-08T12:41:53;4.80;;;4.40;;
11986;SDS011;6053;51.382;6.768;2024-03-08T12:44:20;4.72;;;4.32;;
11986;SDS011;6053;51.382;6.768;2024-03-08T12:46:47;4.57;;;4.28;;
11986;SDS011;6053;51.382;6.768;2024-03-08T12:49:18;4.47;;;4.15;;
11986;SDS011;6053;51.382;6.768;2024-03-08T12:51:51;4.32;;;4.03;;
11986;SDS011;6053;51.382;6.768;2024-03-08T12:54:21;5.03;;;4.63;;
11986;SDS011;6053;51.382;6.768;2024-03-08T12:56:49;4.25;;;4.05;;
11986;SDS011;6053;51.382;6.768;2024-03-08T12:59:28;4.35;;;4.05;;
11986;SDS011;6053;51.382;6.768;2024-03-08T13:01:57;4.32;;;3.92;;
11986;SDS011;6053;51.382;6.768;2024-03-08T13:04:28;4.45;;;4.15;;
11986;SDS011;6053;51.382;6.768;2024-03-08T13:06:56;3.72;;;3.53;;
11986;SDS011;6053;51.382;6.768;2024-03-08T13:09:23;4.07;;;3.67;;
11986;SDS011;6053;51.382;6.768;2024-03-08T13:11:53;4.43;;;3.88;;
11986;SDS011;6053;51.382;6.768;2024-03-08T13:14:26;4.45;;;4.03;;
11986;SDS011;6053;51.382;6.768;2024-03-08T13:16:57;6.20;;;4.30;;
11986;SDS011;6053;51.382;6.768;2024-03-08T13:19:25;5.03;;;4.20;;
11986;SDS011;6053;51.382;6.768;2024-03-08T13:21:53;4.10;;;3.80;;
11986;SDS011;6053;51.382;6.768;2024-03-08T13:24:20;4.25;;;3.85;;
11986;SDS011;6053;51.382;6.768;2024-03-08T13:26:50;4.32;;;4.00;;
11986;SDS011;6053;51.382;6.768;2024-03-08T13:29:20;5.77;;;4.63;;
11986;SDS011;6053;51.382;6.768;2024-03-08T13:31:49;4.33;;;3.93;;
11986;SDS011;6053;51.382;6.768;2024-03-08T13:34:17;4.15;;;3.85;;
11986;SDS011;6053;51.382;6.768;2024-03-08T13:36:53;7.13;;;4.90;;
11986;SDS011;6053;51.382;6.768;2024-03-08T13:39:25;4.13;;;3.83;;
11986;SDS011;6053;51.382;6.768;2024-03-08T13:41:55;3.80;;;3.50;;
11986;SDS011;6053;51.382;6.768;2024-03-08T13:44:22;4.00;;;3.70;;
11986;SDS011;6053;51.382;6.768;2024-03-08T13:46:54;4.20;;;4.00;;
11986;SDS011;6053;51.382;6.768;2024-03-08T13:49:23;3.80;;;3.60;;
11986;SDS011;6053;51.382;6.768;2024-03-08T13:51:57;4.05;;;3.75;;
11986;SDS011;6053;51.382;6.768;2024-03-08T13:56:57;4.43;;;4.10;;
11986;SDS011;6053;51.382;6.768;2024-03-08T13:59:27;3.80;;;3.60;;
11986;SDS011;6053;51.382;6.768;2024-03-08T14:02:02;4.32;;;4.00;;
11986;SDS011;6053;51.382;6.768;2024-03-08T14:04:30;4.10;;;3.90;;
11986;SDS011;6053;51.382;6.768;2024-03-08T14:06:57;3.78;;;3.58;;
11986;SDS011;6053;51.382;6.768;2024-03-08T14:09:32;4.78;;;4.28;;
11986;SDS011;6053;51.382;6.768;2024-03-08T14:12:03;4.00;;;3.70;;
11986;SDS011;6053;51.382;6.768;2024-03-08T14:14:32;4.45;;;4.10;;
11986;SDS011;6053;51.382;6.768;2024-03-08T14:17:03;3.85;;;3.60;;
11986;SDS011;6053;51.382;6.768;2024-03-08T14:19:32;4.15;;;3.85;;
11986;SDS011;6053;51.382;6.768;2024-03-08T14:22:01;25.70;;;9.13;;
11986;SDS011;6053;51.382;6.768;2024-03-08T14:24:30;3.42;;;3.22;;
11986;SDS011;6053;51.382;6.768;2024-03-08T14:27:00;3.33;;;3.10;;
11986;SDS011;6053;51.382;6.768;2024-03-08T14:29:28;5.35;;;4.35;;
11986;SDS011;6053;51.382;6.768;2024-03-08T14:32:01;4.28;;;3.97;;
11986;SDS011;6053;51.382;6.768;2024-03-08T14:34:35;4.00;;;3.70;;
11986;SDS011;6053;51.382;6.768;2024-03-08T14:37:02;4.78;;;4.38;;
11986;SDS011;6053;51.382;6.768;2024-03-08T14:39:39;3.92;;;3.63;;
11986;SDS011;6053;51.382;6.768;2024-03-08T14:42:06;4.25;;;3.90;;
11986;SDS011;6053;51.382;6.768;2024-03-08T14:44:49;4.17;;;3.93;;
11986;SDS011;6053;51.382;6.768;2024-03-08T14:47:17;4.38;;;4.00;;
11986;SDS011;6053;51.382;6.768;2024-03-08T14:49:51;5.47;;;4.70;;
11986;SDS011;6053;51.382;6.768;2024-03-08T14:52:21;4.70;;;4.30;;
11986;SDS011;6053;51.382;6.768;2024-03-08T14:54:54;24.35;;;6.57;;
11986;SDS011;6053;51.382;6.768;2024-03-08T14:57:23;4.78;;;4.20;;
11986;SDS011;6053;51.382;6.768;2024-03-08T14:59:50;4.00;;;3.70;;
11986;SDS011;6053;51.382;6.768;2024-03-08T15:02:22;3.53;;;3.33;;
11986;SDS011;6053;51.382;6.768;2024-03-08T15:04:49;4.50;;;4.10;;
11986;SDS011;6053;51.382;6.768;2024-03-08T15:07:25;4.25;;;3.95;;
11986;SDS011;6053;51.382;6.768;2024-03-08T15:09:52;4.93;;;4.43;;
11986;SDS011;6053;51.382;6.768;2024-03-08T15:12:23;3.67;;;3.47;;
11986;SDS011;6053;51.382;6.768;2024-03-08T15:15:04;4.20;;;3.90;;
11986;SDS011;6053;51.382;6.768;2024-03-08T15:17:37;3.87;;;3.67;;
11986;SDS011;6053;51.382;6.768;2024-03-08T15:20:08;4.30;;;4.00;;
11986;SDS011;6053;51.382;6.768;2024-03-08T15:22:48;4.00;;;3.70;;
11986;SDS011;6053;51.382;6.768;2024-03-08T15:25:15;4.35;;;4.05;;
11986;SDS011;6053;51.382;6.768;2024-03-08T15:27:46;5.03;;;4.60;;
11986;SDS011;6053;51.382;6.768;2024-03-08T15:30:16;4.53;;;4.13;;
11986;SDS011;6053;51.382;6.768;2024-03-08T15:32:48;4.57;;;4.28;;